createdAt,value
2018-07-21T00:00:34.058Z,17.95
2018-07-21T00:01:44.130Z,17.93
2018-07-21T00:02:54.226Z,17.94
2018-07-21T00:04:04.295Z,17.94
2018-07-21T00:05:14.092Z,17.88
2018-07-21T00:06:23.937Z,17.88
2018-07-21T00:07:34.007Z,17.87
2018-07-21T00:08:44.089Z,17.78
2018-07-21T00:09:53.893Z,17.8
2018-07-21T00:11:03.969Z,17.78
2018-07-21T00:12:14.106Z,17.66
2018-07-21T00:13:24.181Z,17.68
2018-07-21T00:14:34.250Z,17.53
2018-07-21T00:15:44.315Z,17.46
2018-07-21T00:16:54.375Z,17.46
2018-07-21T00:18:04.224Z,17.44
2018-07-21T00:19:14.350Z,17.37
2018-07-21T00:20:24.434Z,17.37
2018-07-21T00:21:34.504Z,17.32
2018-07-21T00:22:44.311Z,17.22
2018-07-21T00:23:54.433Z,17.14
2018-07-21T00:25:03.974Z,17.19
2018-07-21T00:26:13.764Z,17.22
2018-07-21T00:27:23.839Z,17.07
2018-07-21T00:28:33.891Z,17.1
2018-07-21T00:29:43.769Z,17.07
2018-07-21T00:30:53.562Z,16.94
2018-07-21T00:32:03.628Z,16.92
2018-07-21T00:33:13.429Z,16.82
2018-07-21T00:34:23.493Z,16.84
2018-07-21T00:35:33.637Z,16.84
2018-07-21T00:36:43.703Z,16.82
2018-07-21T00:37:53.496Z,16.73
2018-07-21T00:39:03.564Z,16.74
2018-07-21T00:40:13.354Z,16.58
2018-07-21T00:41:23.475Z,16.66
2018-07-21T00:42:33.563Z,16.65
2018-07-21T00:43:43.368Z,16.69
2018-07-21T00:44:53.172Z,16.58
2018-07-21T00:46:02.979Z,16.57
2018-07-21T00:47:13.091Z,16.55
2018-07-21T00:48:23.155Z,16.55
2018-07-21T00:49:32.675Z,16.46
2018-07-21T00:50:42.470Z,16.55
2018-07-21T00:51:52.273Z,16.41
2018-07-21T00:53:02.404Z,16.36
2018-07-21T00:54:12.203Z,16.31
2018-07-21T00:55:22.290Z,16.24
2018-07-21T00:56:32.095Z,16.13
2018-07-21T00:57:41.900Z,16.16
2018-07-21T00:58:52.022Z,16.03
2018-07-21T01:00:02.118Z,16.08
2018-07-21T01:01:12.171Z,16.03
2018-07-21T01:02:22.256Z,15.91
2018-07-21T01:03:32.046Z,15.96
2018-07-21T01:04:42.163Z,15.92
2018-07-21T01:05:52.215Z,15.87
2018-07-21T01:07:02.264Z,15.84
2018-07-21T01:08:11.790Z,15.7
2018-07-21T01:09:21.856Z,15.75
2018-07-21T01:10:31.160Z,15.76
2018-07-21T01:11:40.957Z,15.81
2018-07-21T01:12:51.027Z,15.76
2018-07-21T01:14:01.102Z,15.8
2018-07-21T01:15:10.626Z,15.84
2018-07-21T01:16:20.474Z,15.78
2018-07-21T01:17:30.006Z,15.85
2018-07-21T01:18:39.528Z,15.81
2018-07-21T01:19:49.339Z,15.85
2018-07-21T01:20:59.400Z,15.91
2018-07-21T01:22:09.501Z,15.94
2018-07-21T01:23:19.019Z,15.92
2018-07-21T01:24:28.555Z,15.98
2018-07-21T01:25:38.623Z,15.99
2018-07-21T01:26:48.413Z,15.9
2018-07-21T01:27:58.542Z,15.98
2018-07-21T01:29:08.620Z,15.87
2018-07-21T01:30:18.701Z,15.87
2018-07-21T01:31:28.218Z,15.83
2018-07-21T01:32:37.746Z,15.88
2018-07-21T01:33:47.855Z,15.84
2018-07-21T01:34:57.643Z,15.84
2018-07-21T01:36:07.476Z,15.85
2018-07-21T01:37:17.280Z,15.76
2018-07-21T01:38:27.076Z,15.76
2018-07-21T01:39:37.198Z,15.73
2018-07-21T01:40:46.985Z,15.76
2018-07-21T01:41:57.070Z,15.83
2018-07-21T01:43:06.890Z,15.67
2018-07-21T01:44:16.694Z,15.78
2018-07-21T01:45:26.816Z,15.83
2018-07-21T01:46:36.884Z,15.75
2018-07-21T01:47:46.941Z,15.73
2018-07-21T01:48:57.016Z,15.75
2018-07-21T01:50:06.269Z,15.8
2018-07-21T01:51:16.394Z,15.78
2018-07-21T01:52:26.452Z,15.81
2018-07-21T01:53:36.264Z,15.81
2018-07-21T01:54:46.051Z,15.72
2018-07-21T01:55:56.117Z,15.83
2018-07-21T01:57:06.245Z,15.75
2018-07-21T01:58:16.326Z,15.66
2018-07-21T01:59:26.111Z,15.66
2018-07-21T02:00:35.634Z,15.65
2018-07-21T02:01:45.691Z,15.57
2018-07-21T02:02:55.527Z,15.59
2018-07-21T02:04:05.055Z,15.52
2018-07-21T02:05:14.840Z,15.45
2018-07-21T02:06:24.623Z,15.41
2018-07-21T02:07:34.425Z,15.45
2018-07-21T02:08:44.528Z,15.47
2018-07-21T02:09:54.576Z,15.43
2018-07-21T02:11:04.376Z,15.32
2018-07-21T02:12:14.163Z,15.27
2018-07-21T02:13:23.428Z,15.32
2018-07-21T02:14:33.264Z,15.32
2018-07-21T02:15:43.360Z,15.25
2018-07-21T02:16:53.148Z,15.19
2018-07-21T02:18:03.209Z,15.17
2018-07-21T02:19:13.271Z,15.07
2018-07-21T02:20:23.122Z,15.05
2018-07-21T02:21:33.183Z,15.05
2018-07-21T02:22:43.473Z,14.97
2018-07-21T02:23:53.561Z,14.94
2018-07-21T02:25:03.039Z,14.93
2018-07-21T02:26:12.619Z,14.89
2018-07-21T02:27:22.676Z,14.81
2018-07-21T02:28:32.741Z,14.82
2018-07-21T02:29:42.812Z,14.77
2018-07-21T02:30:52.634Z,14.74
2018-07-21T02:32:02.498Z,14.74
2018-07-21T02:33:11.767Z,14.78
2018-07-21T02:34:21.580Z,14.85
2018-07-21T02:35:30.855Z,14.79
2018-07-21T02:36:40.932Z,14.71
2018-07-21T02:37:50.776Z,14.79
2018-07-21T02:39:00.588Z,14.78
2018-07-21T02:40:10.380Z,14.63
2018-07-21T02:41:19.916Z,14.61
2018-07-21T02:42:29.721Z,14.67
2018-07-21T02:43:39.860Z,14.68
2018-07-21T02:44:49.940Z,14.55
2018-07-21T02:45:59.992Z,14.59
2018-07-21T02:47:09.793Z,14.58
2018-07-21T02:48:19.856Z,14.51
2018-07-21T02:49:29.739Z,14.44
2018-07-21T02:50:39.553Z,14.52
2018-07-21T02:51:49.358Z,14.38
2018-07-21T02:52:59.429Z,14.37
2018-07-21T02:54:09.501Z,14.51
2018-07-21T02:55:19.628Z,14.4
2018-07-21T02:56:29.717Z,14.34
2018-07-21T02:57:39.809Z,14.44
2018-07-21T02:58:49.875Z,14.43
2018-07-21T02:59:59.952Z,14.33
2018-07-21T03:03:43.060Z,14.37
2018-07-21T03:04:52.892Z,14.37
2018-07-21T03:06:02.949Z,14.31
2018-07-21T03:07:12.760Z,14.36
2018-07-21T03:08:22.556Z,14.51
2018-07-21T03:09:32.405Z,14.38
2018-07-21T03:10:42.513Z,14.38
2018-07-21T03:11:52.581Z,14.49
2018-07-21T03:13:02.400Z,14.38
2018-07-21T03:14:12.464Z,14.43
2018-07-21T03:15:22.596Z,14.51
2018-07-21T03:16:32.392Z,14.44
2018-07-21T03:17:42.464Z,14.52
2018-07-21T03:18:52.274Z,14.55
2018-07-21T03:20:02.060Z,14.55
2018-07-21T03:21:11.391Z,14.62
2018-07-21T03:22:20.917Z,14.48
2018-07-21T03:23:30.999Z,14.44
2018-07-21T03:24:40.533Z,14.61
2018-07-21T03:25:50.602Z,14.53
2018-07-21T03:27:00.467Z,14.52
2018-07-21T03:28:10.268Z,14.59
2018-07-21T03:29:20.087Z,14.44
2018-07-21T03:30:29.871Z,14.44
2018-07-21T03:31:39.678Z,14.43
2018-07-21T03:32:49.547Z,14.36
2018-07-21T03:33:59.639Z,14.38
2018-07-21T03:35:09.441Z,14.37
2018-07-21T03:36:19.536Z,14.36
2018-07-21T03:37:29.605Z,14.36
2018-07-21T03:38:39.447Z,14.36
2018-07-21T03:39:49.523Z,14.37
2018-07-21T03:40:59.322Z,14.38
2018-07-21T03:42:09.417Z,14.36
2018-07-21T03:43:18.950Z,14.43
2018-07-21T03:44:29.077Z,14.36
2018-07-21T03:45:39.143Z,14.53
2018-07-21T03:46:48.960Z,14.53
2018-07-21T03:47:58.739Z,14.56
2018-07-21T03:49:08.269Z,14.58
2018-07-21T03:50:18.369Z,14.55
2018-07-21T03:51:28.449Z,14.62
2018-07-21T03:52:38.513Z,14.53
2018-07-21T03:53:48.581Z,14.58
2018-07-21T03:54:58.742Z,14.63
2018-07-21T03:56:09.066Z,14.67
2018-07-21T03:57:18.067Z,14.7
2018-07-21T03:58:28.121Z,14.66
2018-07-21T03:59:38.194Z,14.63
2018-07-21T04:00:47.442Z,14.7
2018-07-21T04:01:57.574Z,14.71
2018-07-21T04:03:07.388Z,14.77
2018-07-21T04:04:16.918Z,14.78
2018-07-21T04:05:26.989Z,14.77
2018-07-21T04:06:37.065Z,14.81
2018-07-21T04:07:46.923Z,14.77
2018-07-21T04:08:56.739Z,14.85
2018-07-21T04:10:06.220Z,14.86
2018-07-21T04:11:16.033Z,14.87
2018-07-21T04:12:26.094Z,14.89
2018-07-21T04:13:35.938Z,14.99
2018-07-21T04:14:45.993Z,15.07
2018-07-21T04:15:56.107Z,14.99
2018-07-21T04:17:05.909Z,15.04
2018-07-21T04:18:15.709Z,15
2018-07-21T04:19:25.536Z,15.05
2018-07-21T04:20:34.809Z,15.1
2018-07-21T04:21:44.877Z,15.19
2018-07-21T04:22:54.675Z,15.17
2018-07-21T04:24:04.219Z,15.23
2018-07-21T04:25:14.135Z,15.3
2018-07-21T04:26:23.949Z,15.35
2018-07-21T04:27:34.003Z,15.27
2018-07-21T04:28:43.803Z,15.35
2018-07-21T04:29:53.868Z,15.44
2018-07-21T04:31:03.976Z,15.36
2018-07-21T04:32:14.044Z,15.43
2018-07-21T04:33:23.845Z,15.47
2018-07-21T04:34:33.898Z,15.47
2018-07-21T04:35:43.702Z,15.48
2018-07-21T04:36:53.551Z,15.6
2018-07-21T04:38:03.633Z,15.45
2018-07-21T04:39:12.885Z,15.62
2018-07-21T04:40:22.955Z,15.63
2018-07-21T04:41:32.762Z,15.65
2018-07-21T04:42:42.865Z,15.72
2018-07-21T04:43:52.679Z,15.7
2018-07-21T04:45:02.493Z,15.67
2018-07-21T04:46:12.318Z,15.8
2018-07-21T04:47:22.393Z,15.81
2018-07-21T04:48:32.519Z,15.83
2018-07-21T04:49:42.592Z,15.94
2018-07-21T04:50:52.661Z,15.94
2018-07-21T04:52:02.726Z,16
2018-07-21T04:53:12.784Z,16.06
2018-07-21T04:54:22.350Z,16.1
2018-07-21T04:55:32.440Z,16.18
2018-07-21T04:56:42.509Z,16.21
2018-07-21T04:57:52.579Z,16.22
2018-07-21T04:59:02.369Z,16.29
2018-07-21T05:00:12.231Z,16.41
2018-07-21T05:01:22.074Z,16.41
2018-07-21T05:02:31.863Z,16.43
2018-07-21T05:03:41.688Z,16.54
2018-07-21T05:04:51.492Z,16.58
2018-07-21T05:06:01.618Z,16.68
2018-07-21T05:07:10.886Z,16.59
2018-07-21T05:08:20.404Z,16.66
2018-07-21T05:09:30.466Z,16.84
2018-07-21T05:10:40.263Z,16.77
2018-07-21T05:11:50.105Z,16.68
2018-07-21T05:13:00.174Z,16.86
2018-07-21T05:14:09.702Z,16.91
2018-07-21T05:15:19.515Z,16.92
2018-07-21T05:16:29.593Z,16.89
2018-07-21T05:17:39.171Z,17.04
2018-07-21T05:18:49.231Z,17.12
2018-07-21T05:19:58.862Z,17.05
2018-07-21T05:21:07.816Z,17.1
2018-07-21T05:22:17.878Z,17.1
2018-07-21T05:23:27.739Z,17.22
2018-07-21T05:24:37.529Z,17.31
2018-07-21T05:25:47.582Z,17.28
2018-07-21T05:26:57.647Z,17.35
2018-07-21T05:28:07.447Z,17.28
2018-07-21T05:29:17.571Z,17.37
2018-07-21T05:30:27.097Z,17.41
2018-07-21T05:31:36.608Z,17.39
2018-07-21T05:32:46.142Z,17.39
2018-07-21T05:33:56.222Z,17.5
2018-07-21T05:35:06.366Z,17.5
2018-07-21T05:36:16.447Z,17.63
2018-07-21T05:37:26.536Z,17.66
2018-07-21T05:38:36.630Z,17.59
2018-07-21T05:39:46.714Z,17.69
2018-07-21T05:40:56.576Z,17.79
2018-07-21T05:42:06.372Z,17.72
2018-07-21T05:43:16.433Z,17.78
2018-07-21T05:44:26.220Z,17.76
2018-07-21T05:45:36.307Z,17.78
2018-07-21T05:46:46.451Z,17.84
2018-07-21T05:47:56.247Z,17.84
2018-07-21T05:49:06.052Z,17.78
2018-07-21T05:50:15.844Z,17.76
2018-07-21T05:51:25.914Z,17.84
2018-07-21T05:52:35.759Z,17.76
2018-07-21T05:53:45.826Z,17.9
2018-07-21T05:54:55.897Z,17.88
2018-07-21T05:56:05.954Z,17.82
2018-07-21T05:57:15.738Z,17.9
2018-07-21T05:58:25.596Z,17.79
2018-07-21T05:59:35.398Z,17.88
2018-07-21T06:00:45.180Z,17.94
2018-07-21T06:01:54.987Z,17.97
2018-07-21T06:03:04.900Z,18
2018-07-21T06:04:15.348Z,18
2018-07-21T06:05:25.176Z,18.02
2018-07-21T06:06:35.259Z,18.02
2018-07-21T06:07:45.329Z,18.05
2018-07-21T06:08:55.425Z,18.11
2018-07-21T06:10:05.625Z,18.08
2018-07-21T06:11:15.752Z,18.13
2018-07-21T06:12:25.553Z,18.18
2018-07-21T06:13:35.355Z,18.24
2018-07-21T06:14:45.428Z,18.21
2018-07-21T06:15:55.008Z,18.33
2018-07-21T06:17:04.549Z,18.27
2018-07-21T06:18:14.958Z,18.31
2018-07-21T06:19:24.756Z,18.31
2018-07-21T06:20:34.814Z,18.45
2018-07-21T06:21:44.933Z,18.49
2018-07-21T06:22:55.002Z,18.42
2018-07-21T06:24:04.531Z,18.42
2018-07-21T06:25:14.604Z,18.51
2018-07-21T06:26:24.975Z,18.53
2018-07-21T06:27:34.833Z,18.48
2018-07-21T06:28:44.927Z,18.61
2018-07-21T06:29:54.715Z,18.63
2018-07-21T06:31:04.244Z,18.67
2018-07-21T06:32:14.311Z,18.68
2018-07-21T06:33:24.429Z,18.7
2018-07-21T06:34:34.238Z,18.76
2018-07-21T06:35:44.425Z,18.63
2018-07-21T06:37:13.167Z,18.49
2018-07-21T06:38:22.859Z,18.48
2018-07-21T06:39:33.221Z,18.53
2018-07-21T06:40:43.430Z,18.53
2018-07-21T06:41:53.505Z,18.52
2018-07-21T06:43:03.363Z,18.57
2018-07-21T06:44:13.318Z,18.57
2018-07-21T06:45:22.857Z,18.6
2018-07-21T06:46:32.942Z,18.57
2018-07-21T06:47:43.041Z,18.63
2018-07-21T06:48:52.877Z,18.74
2018-07-21T06:50:02.996Z,18.76
2018-07-21T06:51:12.775Z,18.88
2018-07-21T06:52:22.853Z,18.81
2018-07-21T06:53:32.924Z,18.82
2018-07-21T06:54:42.745Z,18.85
2018-07-21T06:55:52.594Z,18.85
2018-07-21T06:57:02.681Z,18.86
2018-07-21T06:58:12.209Z,18.76
2018-07-21T06:59:22.023Z,18.83
2018-07-21T07:00:31.827Z,18.91
2018-07-21T07:01:41.684Z,18.86
2018-07-21T07:02:51.776Z,18.88
2018-07-21T07:04:01.862Z,19.01
2018-07-21T07:05:11.675Z,19.07
2018-07-21T07:06:21.746Z,19.22
2018-07-21T07:07:31.873Z,19.15
2018-07-21T07:08:41.953Z,19.11
2018-07-21T07:09:52.031Z,19.23
2018-07-21T07:11:02.093Z,19.23
2018-07-21T07:12:11.631Z,19.3
2018-07-21T07:13:21.772Z,19.29
2018-07-21T07:14:31.851Z,19.37
2018-07-21T07:15:41.928Z,19.23
2018-07-21T07:16:51.737Z,19.26
2018-07-21T07:18:01.807Z,19.3
2018-07-21T07:19:11.654Z,19.3
2018-07-21T07:20:21.456Z,19.34
2018-07-21T07:21:31.536Z,19.44
2018-07-21T07:22:41.624Z,19.55
2018-07-21T07:23:51.439Z,19.53
2018-07-21T07:25:01.551Z,19.62
2018-07-21T07:26:11.618Z,19.55
2018-07-21T07:27:21.769Z,19.63
2018-07-21T07:28:31.883Z,19.72
2018-07-21T07:29:41.418Z,19.75
2018-07-21T07:30:51.283Z,19.72
2018-07-21T07:32:01.356Z,19.82
2018-07-21T07:33:10.892Z,19.87
2018-07-21T07:34:20.434Z,20.03
2018-07-21T07:35:30.501Z,19.99
2018-07-21T07:36:40.083Z,19.92
2018-07-21T07:37:49.895Z,19.96
2018-07-21T07:38:59.701Z,19.94
2018-07-21T07:40:09.523Z,19.92
2018-07-21T07:41:19.612Z,19.92
2018-07-21T07:42:29.448Z,19.99
2018-07-21T07:43:39.535Z,20.07
2018-07-21T07:44:49.069Z,20.11
2018-07-21T07:45:58.881Z,20.27
2018-07-21T07:47:08.678Z,20.32
2018-07-21T07:48:18.522Z,20.33
2018-07-21T07:49:28.320Z,20.4
2018-07-21T07:50:38.386Z,20.42
2018-07-21T07:51:48.190Z,20.44
2018-07-21T07:52:58.000Z,20.55
2018-07-21T07:54:08.122Z,20.63
2018-07-21T07:55:18.175Z,20.59
2018-07-21T07:56:27.702Z,20.64
2018-07-21T07:57:37.521Z,20.63
2018-07-21T07:58:47.329Z,20.68
2018-07-21T07:59:56.916Z,20.74
2018-07-21T08:01:06.453Z,20.85
2018-07-21T08:02:16.109Z,20.83
2018-07-21T08:03:25.651Z,20.96
2018-07-21T08:04:35.737Z,20.88
2018-07-21T08:05:45.592Z,21.07
2018-07-21T08:06:55.659Z,21.07
2018-07-21T08:08:05.464Z,21.08
2018-07-21T08:09:15.284Z,21.23
2018-07-21T08:10:25.084Z,21.32
2018-07-21T08:11:34.952Z,21.37
2018-07-21T08:12:44.481Z,21.45
2018-07-21T08:13:54.541Z,21.45
2018-07-21T08:15:04.330Z,21.54
2018-07-21T08:16:13.605Z,21.59
2018-07-21T08:17:23.739Z,21.72
2018-07-21T08:18:33.808Z,21.74
2018-07-21T08:19:43.618Z,21.77
2018-07-21T08:20:53.694Z,21.81
2018-07-21T08:22:03.759Z,21.89
2018-07-21T08:23:13.872Z,21.84
2018-07-21T08:24:23.956Z,21.85
2018-07-21T08:25:34.030Z,21.89
2018-07-21T08:26:44.093Z,21.94
2018-07-21T08:27:54.160Z,21.96
2018-07-21T08:29:04.345Z,22.04
2018-07-21T08:30:14.578Z,22.15
2018-07-21T08:31:24.386Z,22.22
2018-07-21T08:32:33.647Z,22.25
2018-07-21T08:33:43.710Z,22.23
2018-07-21T08:34:53.558Z,22.28
2018-07-21T08:36:03.101Z,22.36
2018-07-21T08:37:12.888Z,22.3
2018-07-21T08:38:22.976Z,22.43
2018-07-21T08:39:32.494Z,22.51
2018-07-21T08:40:42.610Z,22.44
2018-07-21T08:41:52.680Z,22.55
2018-07-21T08:43:02.478Z,22.62
2018-07-21T08:44:12.004Z,22.74
2018-07-21T08:45:22.079Z,22.77
2018-07-21T08:46:32.192Z,22.86
2018-07-21T08:47:42.243Z,22.88
2018-07-21T08:48:52.047Z,22.83
2018-07-21T08:50:02.234Z,22.91
2018-07-21T08:51:12.036Z,22.92
2018-07-21T08:52:22.177Z,23.06
2018-07-21T08:53:32.250Z,23.04
2018-07-21T08:54:42.316Z,23.06
2018-07-21T08:55:52.799Z,23.02
2018-07-21T08:57:02.770Z,23.1
2018-07-21T08:58:12.633Z,23.18
2018-07-21T08:59:22.423Z,23.23
2018-07-21T09:00:32.497Z,23.26
2018-07-21T09:01:42.572Z,23.33
2018-07-21T09:02:52.366Z,23.29
2018-07-21T09:04:02.238Z,23.32
2018-07-21T09:05:11.767Z,23.37
2018-07-21T09:06:21.555Z,23.34
2018-07-21T09:07:31.615Z,23.45
2018-07-21T09:08:41.155Z,23.51
2018-07-21T09:09:51.274Z,23.56
2018-07-21T09:11:01.363Z,23.63
2018-07-21T09:12:11.183Z,23.66
2018-07-21T09:13:20.986Z,23.67
2018-07-21T09:14:30.534Z,23.64
2018-07-21T09:15:40.404Z,23.71
2018-07-21T09:16:50.491Z,23.77
2018-07-21T09:18:00.564Z,23.82
2018-07-21T09:19:10.363Z,23.81
2018-07-21T09:20:20.434Z,23.86
2018-07-21T09:21:30.454Z,23.89
2018-07-21T09:22:40.465Z,23.91
2018-07-21T09:23:50.277Z,24
2018-07-21T09:25:00.076Z,24.03
2018-07-21T09:26:09.620Z,24.13
2018-07-21T09:27:19.236Z,24.13
2018-07-21T09:28:29.027Z,24.06
2018-07-21T09:29:39.117Z,24.14
2018-07-21T09:30:48.942Z,24.21
2018-07-21T09:31:58.745Z,24.21
2018-07-21T09:33:08.592Z,24.32
2018-07-21T09:34:18.505Z,24.37
2018-07-21T09:35:28.646Z,24.38
2018-07-21T09:36:38.730Z,24.47
2018-07-21T09:37:48.821Z,24.58
2018-07-21T09:38:58.667Z,24.5
2018-07-21T09:40:08.818Z,24.61
2018-07-21T09:41:19.074Z,24.62
2018-07-21T09:42:29.132Z,24.61
2018-07-21T09:43:38.986Z,24.78
2018-07-21T09:44:48.832Z,24.74
2018-07-21T09:45:58.646Z,24.85
2018-07-21T09:47:08.456Z,24.89
2018-07-21T09:48:18.544Z,24.92
2018-07-21T09:49:28.625Z,24.96
2018-07-21T09:50:38.743Z,25
2018-07-21T09:51:48.293Z,25.03
2018-07-21T09:52:58.080Z,25.06
2018-07-21T09:54:08.170Z,25.06
2018-07-21T09:55:17.719Z,25.14
2018-07-21T09:56:27.300Z,25.18
2018-07-21T09:57:36.563Z,25.25
2018-07-21T09:58:46.114Z,25.31
2018-07-21T09:59:55.640Z,25.43
2018-07-21T10:01:05.427Z,25.46
2018-07-21T10:02:15.285Z,25.44
2018-07-21T10:03:24.819Z,25.52
2018-07-21T10:04:34.614Z,25.59
2018-07-21T10:05:44.414Z,25.55
2018-07-21T10:06:54.492Z,25.73
2018-07-21T10:08:04.341Z,25.67
2018-07-21T10:09:14.158Z,25.76
2018-07-21T10:10:24.235Z,25.76
2018-07-21T10:11:34.299Z,25.77
2018-07-21T10:12:44.367Z,25.81
2018-07-21T10:13:53.966Z,25.91
2018-07-21T10:15:03.764Z,25.93
2018-07-21T10:16:13.836Z,25.92
2018-07-21T10:17:23.903Z,26.06
2018-07-21T10:18:33.957Z,26.16
2018-07-21T10:19:44.081Z,26.13
2018-07-21T10:20:54.157Z,26.15
2018-07-21T10:22:04.158Z,26.15
2018-07-21T10:23:14.407Z,26.23
2018-07-21T10:24:24.316Z,26.19
2018-07-21T10:25:34.446Z,26.27
2018-07-21T10:26:44.002Z,26.27
2018-07-21T10:27:53.825Z,26.31
2018-07-21T10:29:02.829Z,26.44
2018-07-21T10:30:12.462Z,26.42
2018-07-21T10:31:22.392Z,26.45
2018-07-21T10:32:32.477Z,26.45
2018-07-21T10:33:42.733Z,26.37
2018-07-21T10:34:52.831Z,26.36
2018-07-21T10:36:02.915Z,26.31
2018-07-21T10:37:13.245Z,26.26
2018-07-21T10:38:23.056Z,26.29
2018-07-21T10:39:33.115Z,26.26
2018-07-21T10:40:42.917Z,26.3
2018-07-21T10:41:52.716Z,26.36
2018-07-21T10:43:02.574Z,26.33
2018-07-21T10:44:12.115Z,26.46
2018-07-21T10:45:21.945Z,26.45
2018-07-21T10:46:31.752Z,26.48
2018-07-21T10:47:41.298Z,26.39
2018-07-21T10:48:51.159Z,26.44
2018-07-21T10:50:01.230Z,26.55
2018-07-21T10:51:11.039Z,26.55
2018-07-21T10:52:21.097Z,26.56
2018-07-21T10:53:30.905Z,26.6
2018-07-21T10:54:40.750Z,26.59
2018-07-21T10:55:50.294Z,26.63
2018-07-21T10:56:59.820Z,26.73
2018-07-21T10:58:09.892Z,26.71
2018-07-21T10:59:19.979Z,26.78
2018-07-21T11:00:30.117Z,26.78
2018-07-21T11:01:40.248Z,26.92
2018-07-21T11:02:50.050Z,26.98
2018-07-21T11:03:59.324Z,26.96
2018-07-21T11:05:08.603Z,27.04
2018-07-21T11:06:18.721Z,27.16
2018-07-21T11:07:28.535Z,27.18
2018-07-21T11:08:38.065Z,27.29
2018-07-21T11:09:47.880Z,27.37
2018-07-21T11:10:57.676Z,27.34
2018-07-21T11:12:07.245Z,27.43
2018-07-21T11:13:16.794Z,27.48
2018-07-21T11:14:26.604Z,27.6
2018-07-21T11:15:36.635Z,27.55
2018-07-21T11:16:46.542Z,27.55
2018-07-21T11:17:56.411Z,27.6
2018-07-21T11:19:05.955Z,27.66
2018-07-21T11:20:16.038Z,27.66
2018-07-21T11:21:26.131Z,27.76
2018-07-21T11:22:36.209Z,27.81
2018-07-21T11:23:46.062Z,27.79
2018-07-21T11:24:56.132Z,27.79
2018-07-21T11:26:05.957Z,27.86
2018-07-21T11:27:16.030Z,27.85
2018-07-21T11:28:25.830Z,27.9
2018-07-21T11:29:35.937Z,27.91
2018-07-21T11:30:45.740Z,28.08
2018-07-21T11:31:55.841Z,28.1
2018-07-21T11:33:05.911Z,28.23
2018-07-21T11:34:15.988Z,28.27
2018-07-21T11:35:26.512Z,28.47
2018-07-21T11:36:36.773Z,28.68
2018-07-21T11:37:46.600Z,28.97
2018-07-21T11:38:56.407Z,29.28
2018-07-21T11:40:06.201Z,29.61
2018-07-21T11:41:16.344Z,29.99
2018-07-21T11:42:26.421Z,30.33
2018-07-21T11:43:36.482Z,30.78
2018-07-21T11:44:46.015Z,31.1
2018-07-21T11:45:56.097Z,31.62
2018-07-21T11:47:05.955Z,31.92
2018-07-21T11:48:16.048Z,32.39
2018-07-21T11:49:25.862Z,32.91
2018-07-21T11:50:35.684Z,33.32
2018-07-21T11:51:45.482Z,33.73
2018-07-21T11:52:55.636Z,34.24
2018-07-21T11:54:05.709Z,34.5
2018-07-21T11:55:15.497Z,34.75
2018-07-21T11:56:25.321Z,35.13
2018-07-21T11:57:35.388Z,35.53
2018-07-21T11:58:45.521Z,35.78
2018-07-21T11:59:55.619Z,36.18
2018-07-21T12:01:05.155Z,36.57
2018-07-21T12:02:14.686Z,36.92
2018-07-21T12:03:24.766Z,37.21
2018-07-21T12:04:34.638Z,37.48
2018-07-21T12:05:44.815Z,37.91
2018-07-21T12:06:54.476Z,38.04
2018-07-21T12:08:04.296Z,38.13
2018-07-21T12:09:14.120Z,38
2018-07-21T12:10:24.269Z,38.36
2018-07-21T12:11:33.819Z,38.48
2018-07-21T12:12:43.113Z,38.42
2018-07-21T12:13:52.680Z,38.57
2018-07-21T12:15:02.513Z,38.82
2018-07-21T12:16:12.393Z,38.98
2018-07-21T12:17:22.202Z,39.25
2018-07-21T12:18:32.308Z,39.39
2018-07-21T12:19:42.130Z,39.7
2018-07-21T12:20:52.203Z,39.78
2018-07-21T12:22:02.354Z,40.02
2018-07-21T12:23:12.175Z,39.91
2018-07-21T12:24:22.267Z,39.82
2018-07-21T12:25:32.361Z,39.89
2018-07-21T12:26:42.451Z,39.89
2018-07-21T12:27:52.606Z,39.97
2018-07-21T12:29:02.164Z,40.36
2018-07-21T12:30:11.709Z,40.67
2018-07-21T12:31:21.528Z,40.49
2018-07-21T12:32:31.349Z,40.69
2018-07-21T12:33:41.561Z,40.9
2018-07-21T12:34:51.860Z,40.86
2018-07-21T12:36:01.955Z,41.26
2018-07-21T12:37:12.049Z,41.46
2018-07-21T12:38:21.871Z,41.71
2018-07-21T12:39:32.026Z,41.91
2018-07-21T12:40:42.118Z,41.95
2018-07-21T12:41:51.918Z,41.87
2018-07-21T12:43:01.741Z,41.74
2018-07-21T12:44:11.285Z,41.9
2018-07-21T12:45:21.153Z,42.12
2018-07-21T12:46:31.249Z,42.29
2018-07-21T12:47:41.082Z,42.36
2018-07-21T12:48:50.623Z,42.56
2018-07-21T12:50:00.720Z,42.52
2018-07-21T12:51:10.835Z,42.56
2018-07-21T12:52:20.922Z,42.74
2018-07-21T12:53:31.019Z,42.87
2018-07-21T12:54:41.123Z,42.81
2018-07-21T12:55:50.405Z,42.44
2018-07-21T12:57:00.560Z,42.58
2018-07-21T12:58:10.666Z,42.55
2018-07-21T12:59:20.233Z,42.58
2018-07-21T13:00:30.362Z,42.37
2018-07-21T13:01:39.938Z,42.22
2018-07-21T13:02:50.073Z,42.28
2018-07-21T13:03:59.894Z,42.24
2018-07-21T13:05:09.723Z,42.21
2018-07-21T13:06:19.286Z,41.55
2018-07-21T13:07:29.104Z,41.49
2018-07-21T13:08:39.250Z,41.36
2018-07-21T13:09:49.593Z,41.23
2018-07-21T13:10:59.880Z,40.95
2018-07-21T13:12:09.693Z,41.15
2018-07-21T13:13:19.788Z,41.45
2018-07-21T13:14:29.955Z,41.53
2018-07-21T13:15:39.785Z,41.65
2018-07-21T13:16:49.333Z,41.88
2018-07-21T13:17:59.408Z,41.8
2018-07-21T13:19:09.221Z,42.02
2018-07-21T13:20:19.343Z,42.15
2018-07-21T13:21:29.437Z,42.29
2018-07-21T13:22:39.526Z,42.37
2018-07-21T13:23:49.611Z,42.36
2018-07-21T13:24:59.429Z,42.41
2018-07-21T13:26:12.981Z,42.22
2018-07-21T13:27:22.788Z,42.25
2018-07-21T13:28:32.883Z,42.36
2018-07-21T13:29:42.971Z,42.25
2018-07-21T13:30:52.796Z,41.96
2018-07-21T13:32:02.405Z,42.07
2018-07-21T13:33:11.744Z,42.17
2018-07-21T13:34:21.684Z,42.14
2018-07-21T13:35:31.518Z,42.32
2018-07-21T13:36:41.627Z,42.44
2018-07-21T13:37:51.785Z,42.47
2018-07-21T13:39:01.606Z,42.29
2018-07-21T13:40:11.417Z,42.49
2018-07-21T13:41:21.255Z,42.75
2018-07-21T13:42:31.356Z,42.94
2018-07-21T13:43:41.219Z,42.93
2018-07-21T13:44:50.506Z,42.82
2018-07-21T13:46:00.618Z,42.62
2018-07-21T13:47:10.433Z,42.33
2018-07-21T13:48:19.997Z,42.28
2018-07-21T13:49:29.902Z,42.62
2018-07-21T13:50:39.709Z,42.75
2018-07-21T13:51:49.783Z,42.92
2018-07-21T13:52:59.864Z,42.77
2018-07-21T13:54:09.416Z,42.82
2018-07-21T13:55:19.570Z,42.59
2018-07-21T13:56:29.653Z,42.63
2018-07-21T13:57:39.793Z,42.82
2018-07-21T13:58:49.893Z,42.68
2018-07-21T13:59:59.708Z,42.73
2018-07-21T14:01:09.286Z,42.56
2018-07-21T14:02:19.591Z,42.46
2018-07-21T14:03:29.919Z,42.8
2018-07-21T14:04:40.023Z,42.59
2018-07-21T14:05:49.576Z,42.61
2018-07-21T14:06:59.183Z,42.47
2018-07-21T14:08:09.282Z,42.62
2018-07-21T14:09:18.822Z,42.74
2018-07-21T14:10:28.637Z,42.58
2018-07-21T14:11:38.735Z,42.55
2018-07-21T14:12:48.889Z,42.65
2018-07-21T14:13:58.980Z,42.59
2018-07-21T14:15:09.078Z,42.93
2018-07-21T14:16:19.192Z,43.19
2018-07-21T14:17:29.278Z,43.46
2018-07-21T14:18:39.139Z,43.5
2018-07-21T14:19:49.235Z,43.84
2018-07-21T14:20:59.318Z,43.68
2018-07-21T14:22:09.406Z,43.46
2018-07-21T14:23:19.236Z,43.63
2018-07-21T14:24:29.108Z,43.81
2018-07-21T14:25:39.208Z,44.09
2018-07-21T14:26:49.310Z,44.11
2018-07-21T14:27:59.414Z,43.97
2018-07-21T14:29:09.237Z,43.99
2018-07-21T14:30:19.109Z,44.07
2018-07-21T14:31:29.213Z,44.06
2018-07-21T14:32:39.299Z,44.29
2018-07-21T14:33:49.404Z,44.48
2018-07-21T14:34:59.226Z,44.38
2018-07-21T14:36:10.159Z,44
2018-07-21T14:37:20.869Z,44
2018-07-21T14:38:30.683Z,44.25
2018-07-21T14:39:40.484Z,44.26
2018-07-21T14:40:50.581Z,44.52
2018-07-21T14:42:00.207Z,44.62
2018-07-21T14:43:09.507Z,44.64
2018-07-21T14:44:19.316Z,44.59
2018-07-21T14:45:29.140Z,44.19
2018-07-21T14:46:39.239Z,44.3
2018-07-21T14:47:49.103Z,44.42
2018-07-21T14:48:58.666Z,44.45
2018-07-21T14:50:08.757Z,44.29
2018-07-21T14:51:18.837Z,44.13
2018-07-21T14:52:28.381Z,44.1
2018-07-21T14:53:38.531Z,44.18
2018-07-21T14:54:49.004Z,44.11
2018-07-21T14:55:59.433Z,44.07
2018-07-21T14:57:08.693Z,43.75
2018-07-21T14:58:18.241Z,43.63
2018-07-21T14:59:28.132Z,43.24
2018-07-21T15:00:37.401Z,43.54
2018-07-21T15:01:47.556Z,43.28
2018-07-21T15:02:57.720Z,43.43
2018-07-21T15:04:07.534Z,43.38
2018-07-21T15:05:17.665Z,43.18
2018-07-21T15:06:27.492Z,43.32